Time;durP1;ratioP1;P1;durP2;ratioP2;P2;SDS_P1;SDS_P2;PMS_P1;PMS_P2;Temp;Humidity;BMP_temperature;BMP_pressure;BME280_temperature;BME280_humidity;BME280_pressure;Samples;Min_cycle;Max_cycle;Signal;HPM_P1;HPM_P2
2021/03/07 00:01:02;;;;;;;16.93;12.30;;;;;;;-2.24;64.68;101118.75;1717808;83;21060;-53
2021/03/07 00:03:27;;;;;;;19.87;11.45;;;;;;;-2.24;64.76;101114.71;1717729;83;21148;-53
2021/03/07 00:05:59;;;;;;;16.42;10.98;;;;;;;-2.22;64.59;101111.33;1717876;83;21382;-53
2021/03/07 00:08:45;;;;;;;16.27;12.07;;;;;;;-2.23;64.65;101102.91;1718217;83;21053;-54
2021/03/07 00:11:15;;;;;;;16.20;10.85;;;;;;;-2.24;64.69;101101.25;1715681;83;21084;-53
2021/03/07 00:13:44;;;;;;;16.32;10.85;;;;;;;-2.26;64.71;101091.16;1717889;82;21667;-54
2021/03/07 00:16:17;;;;;;;16.60;11.65;;;;;;;-2.28;64.93;101091.84;1718086;83;21689;-56
2021/03/07 00:18:53;;;;;;;18.45;11.15;;;;;;;-2.30;65.00;101087.13;1714446;83;21398;-54
2021/03/07 00:21:23;;;;;;;20.52;11.50;;;;;;;-2.29;65.24;101088.81;1704615;84;21046;-54
2021/03/07 00:23:52;;;;;;;17.20;11.50;;;;;;;-2.33;65.11;101092.38;1704244;84;21030;-54
2021/03/07 00:26:24;;;;;;;15.93;10.98;;;;;;;-2.31;65.15;101088.16;1704325;84;21030;-54
2021/03/07 00:28:51;;;;;;;22.52;14.90;;;;;;;-2.30;65.20;101084.44;1704302;84;20975;-53
2021/03/07 00:31:20;;;;;;;19.32;12.65;;;;;;;-2.30;65.29;101076.36;1704237;84;21759;-53
2021/03/07 00:33:52;;;;;;;17.98;12.98;;;;;;;-2.33;65.38;101064.59;1704072;83;21620;-54
2021/03/07 00:36:22;;;;;;;18.05;11.55;;;;;;;-2.36;65.53;101062.26;1704280;84;21015;-54
2021/03/07 00:38:53;;;;;;;16.52;10.43;;;;;;;-2.36;65.51;101056.88;1704350;84;21038;-54
2021/03/07 00:41:24;;;;;;;18.50;11.45;;;;;;;-2.36;65.51;101053.67;1705500;83;21062;-54
2021/03/07 00:43:52;;;;;;;15.05;10.88;;;;;;;-2.35;65.51;101055.88;1704638;84;21358;-54
2021/03/07 00:46:22;;;;;;;16.02;10.23;;;;;;;-2.36;65.50;101031.31;1704384;84;21059;-54
2021/03/07 00:49:00;;;;;;;21.57;10.88;;;;;;;-2.35;65.58;101043.77;1704387;83;21629;-54
2021/03/07 00:51:28;;;;;;;16.02;11.30;;;;;;;-2.35;65.56;101030.31;1704594;84;21027;-54
2021/03/07 00:54:05;;;;;;;20.48;11.40;;;;;;;-2.34;65.49;101029.31;1704706;83;21512;-54
2021/03/07 00:56:34;;;;;;;18.10;11.57;;;;;;;-2.36;65.44;101016.52;1704513;84;21158;-53
2021/03/07 00:59:05;;;;;;;16.17;11.40;;;;;;;-2.37;65.55;101012.14;1704194;84;21595;-54
2021/03/07 01:01:33;;;;;;;18.05;11.78;;;;;;;-2.36;65.45;101009.79;1704351;83;21102;-53
2021/03/07 01:04:06;;;;;;;21.05;12.73;;;;;;;-2.35;65.34;101002.06;1704310;84;21026;-53
2021/03/07 01:06:35;;;;;;;22.17;11.73;;;;;;;-2.35;65.39;101003.41;1704652;84;21678;-53
2021/03/07 01:09:06;;;;;;;17.82;12.10;;;;;;;-2.35;65.35;100995.33;1704491;83;21549;-53
2021/03/07 01:11:35;;;;;;;18.95;11.80;;;;;;;-2.35;65.42;100992.64;1704127;84;21699;-53
2021/03/07 01:14:09;;;;;;;14.23;10.25;;;;;;;-2.32;65.39;100986.91;1704319;82;21066;-53
2021/03/07 01:16:43;;;;;;;17.02;10.23;;;;;;;-2.32;65.31;100976.14;1704583;84;21094;-53
2021/03/07 01:19:06;;;;;;;15.68;10.82;;;;;;;-2.33;65.37;100973.11;1705937;83;21007;-54
2021/03/07 01:21:35;;;;;;;16.40;10.80;;;;;;;-2.35;65.52;100966.56;1712366;83;21391;-54
2021/03/07 01:24:06;;;;;;;17.57;9.53;;;;;;;-2.35;65.53;100954.97;1712124;83;21615;-54
2021/03/07 01:26:33;;;;;;;13.32;8.88;;;;;;;-2.35;65.55;100965.22;1712378;83;21534;-54
2021/03/07 01:29:02;;;;;;;11.97;8.93;;;;;;;-2.34;65.58;100956.14;1712265;83;21078;-54
2021/03/07 01:31:31;;;;;;;12.10;9.08;;;;;;;-2.33;65.57;100944.86;1712503;83;21071;-54
2021/03/07 01:34:03;;;;;;;12.35;9.28;;;;;;;-2.31;65.59;100946.88;1712355;83;21348;-54
2021/03/07 01:36:33;;;;;;;14.07;8.98;;;;;;;-2.32;65.64;100943.33;1712763;83;21010;-53
2021/03/07 01:39:01;;;;;;;13.72;9.80;;;;;;;-2.32;65.76;100943.84;1713094;83;21091;-54
2021/03/07 01:41:29;;;;;;;15.70;8.93;;;;;;;-2.31;65.76;100945.53;1713044;83;20963;-53
2021/03/07 01:43:56;;;;;;;15.50;9.53;;;;;;;-2.27;65.72;100946.34;1713026;83;21597;-54
2021/03/07 01:46:25;;;;;;;11.18;8.58;;;;;;;-2.28;65.71;100944.66;1712491;83;21569;-54
2021/03/07 01:48:55;;;;;;;13.90;8.90;;;;;;;-2.25;65.59;100946.17;1712785;83;21616;-54
2021/03/07 01:51:22;;;;;;;11.15;8.88;;;;;;;-2.22;65.50;100927.48;1713212;83;21553;-54
2021/03/07 01:53:50;;;;;;;13.00;7.97;;;;;;;-2.22;65.47;100931.01;1712244;83;21509;-54
2021/03/07 01:56:18;;;;;;;12.78;9.28;;;;;;;-2.22;65.46;100927.48;1684834;83;21030;-54
2021/03/07 01:58:46;;;;;;;10.68;8.45;;;;;;;-2.22;65.46;100921.59;1712937;83;21291;-56
2021/03/07 02:01:14;;;;;;;11.30;8.83;;;;;;;-2.24;65.52;100912.87;1712987;83;21022;-54
2021/03/07 02:03:51;;;;;;;11.95;8.58;;;;;;;-2.23;65.54;100919.08;1713071;83;21022;-54
2021/03/07 02:06:20;;;;;;;12.05;8.08;;;;;;;-2.23;65.46;100907.80;1713243;83;21042;-53
2021/03/07 02:08:50;;;;;;;11.53;8.20;;;;;;;-2.23;65.55;100909.66;1713094;83;21156;-54
2021/03/07 02:11:18;;;;;;;13.10;8.15;;;;;;;-2.22;65.59;100901.92;1713145;83;21207;-54
2021/03/07 02:13:46;;;;;;;15.23;8.28;;;;;;;-2.21;65.51;100895.02;1713019;82;21002;-54
2021/03/07 02:16:19;;;;;;;14.10;9.30;;;;;;;-2.20;65.39;100898.53;1713089;83;21022;-54
2021/03/07 02:18:50;;;;;;;13.83;8.43;;;;;;;-2.19;65.39;100901.05;1712840;83;20955;-54
2021/03/07 02:21:31;;;;;;;13.48;9.25;;;;;;;-2.19;65.39;100892.97;1685687;83;20978;-54
2021/03/07 02:24:08;;;;;;;16.27;9.55;;;;;;;-2.20;65.42;100896.70;1713065;83;22293;-54
2021/03/07 02:26:45;;;;;;;13.43;9.00;;;;;;;-2.24;65.54;100891.34;1713217;83;28644;-53
2021/03/07 02:29:15;;;;;;;11.75;7.65;;;;;;;-2.30;65.89;100887.50;1712956;83;21025;-54
2021/03/07 02:31:48;;;;;;;11.65;8.25;;;;;;;-2.31;65.88;100879.09;1712951;83;20982;-54
2021/03/07 02:34:29;;;;;;;12.55;8.73;;;;;;;-2.30;65.85;100861.08;1713240;83;21096;-54
2021/03/07 02:37:00;;;;;;;12.23;8.13;;;;;;;-2.29;65.88;100867.66;1712951;83;22086;-53
2021/03/07 02:39:31;;;;;;;13.32;8.20;;;;;;;-2.28;65.96;100864.45;1712482;83;21656;-54
2021/03/07 02:42:11;;;;;;;10.35;8.78;;;;;;;-2.28;65.87;100849.65;1712898;83;21066;-53
2021/03/07 02:44:47;;;;;;;11.35;8.28;;;;;;;-2.28;65.89;100855.03;1713036;83;21022;-54
2021/03/07 02:47:14;;;;;;;16.67;8.05;;;;;;;-2.29;65.75;100838.55;1713127;83;21082;-53
2021/03/07 02:49:43;;;;;;;12.60;8.05;;;;;;;-2.29;65.75;100827.30;1713071;83;21206;-53
2021/03/07 02:52:10;;;;;;;11.28;8.53;;;;;;;-2.30;65.73;100829.65;1712874;83;21036;-54
2021/03/07 02:54:39;;;;;;;10.30;7.90;;;;;;;-2.30;65.71;100841.76;1685314;83;20963;-54
2021/03/07 02:57:07;;;;;;;12.78;9.03;;;;;;;-2.28;65.61;100830.81;1712877;83;21576;-54
2021/03/07 02:59:35;;;;;;;14.53;8.10;;;;;;;-2.26;65.50;100831.45;1684850;83;21018;-54
2021/03/07 03:02:04;;;;;;;11.10;8.48;;;;;;;-2.26;65.48;100824.73;1712883;83;21641;-54
2021/03/07 03:04:34;;;;;;;12.80;9.38;;;;;;;-2.25;65.36;100818.34;1712989;83;22098;-54
2021/03/07 03:07:03;;;;;;;12.37;8.10;;;;;;;-2.23;65.21;100808.73;1713017;83;21042;-54
2021/03/07 03:09:32;;;;;;;13.95;8.80;;;;;;;-2.23;65.09;100812.25;1713164;83;21172;-54
2021/03/07 03:11:59;;;;;;;12.50;9.28;;;;;;;-2.24;64.99;100805.22;1712995;83;21030;-54
2021/03/07 03:14:26;;;;;;;12.37;8.38;;;;;;;-2.23;64.89;100800.14;1713067;82;21294;-54
2021/03/07 03:16:58;;;;;;;11.03;8.15;;;;;;;-2.22;64.83;100799.14;1713116;83;21014;-54
2021/03/07 03:19:27;;;;;;;16.05;9.48;;;;;;;-2.22;64.69;100792.41;1712209;83;21042;-53
2021/03/07 03:21:54;;;;;;;15.40;9.50;;;;;;;-2.21;64.67;100790.58;1705192;84;21042;-54
2021/03/07 03:24:22;;;;;;;15.03;9.08;;;;;;;-2.19;64.54;100785.83;1705377;83;21031;-54
2021/03/07 03:26:50;;;;;;;14.60;7.87;;;;;;;-2.19;64.44;100775.89;1705235;84;21213;-54
2021/03/07 03:29:18;;;;;;;13.15;9.08;;;;;;;-2.17;64.36;100775.71;1705074;84;20963;-54
2021/03/07 03:31:46;;;;;;;12.55;8.78;;;;;;;-2.16;64.19;100763.45;1705143;84;21071;-54
2021/03/07 03:34:13;;;;;;;15.28;8.73;;;;;;;-2.15;64.10;100758.38;1705405;84;21679;-54
2021/03/07 03:36:43;;;;;;;13.62;8.60;;;;;;;-2.16;64.05;100760.76;1705130;84;21054;-54
2021/03/07 03:39:17;;;;;;;14.70;8.93;;;;;;;-2.15;64.01;100748.95;1705238;83;21207;-54
2021/03/07 03:41:49;;;;;;;15.13;9.35;;;;;;;-2.14;63.88;100741.73;1705036;84;21074;-54
2021/03/07 03:44:21;;;;;;;13.18;9.83;;;;;;;-2.14;63.86;100727.75;1704911;84;21050;-54
2021/03/07 03:46:51;;;;;;;14.40;9.18;;;;;;;-2.16;63.94;100724.42;1705219;84;21011;-54
2021/03/07 03:49:28;;;;;;;12.80;9.45;;;;;;;-2.16;63.87;100729.80;1705261;84;21023;-53
2021/03/07 03:52:01;;;;;;;12.47;9.83;;;;;;;-2.16;63.91;100721.73;1705231;84;21554;-53
2021/03/07 03:54:29;;;;;;;13.75;8.35;;;;;;;-2.17;63.86;100725.43;1704758;83;21146;-53
2021/03/07 03:56:58;;;;;;;14.47;9.75;;;;;;;-2.17;63.88;100720.05;1705303;83;20967;-53
2021/03/07 03:59:27;;;;;;;13.65;9.40;;;;;;;-2.16;63.78;100698.86;1705107;83;21031;-53
2021/03/07 04:01:57;;;;;;;17.80;9.85;;;;;;;-2.15;63.91;100710.45;1685065;84;21628;-53
2021/03/07 04:04:27;;;;;;;13.98;9.83;;;;;;;-2.15;63.84;100692.43;1705072;84;21275;-53
2021/03/07 04:06:54;;;;;;;14.98;10.28;;;;;;;-2.15;63.77;100695.12;1705003;83;21078;-53
2021/03/07 04:09:22;;;;;;;15.55;10.75;;;;;;;-2.12;63.77;100683.16;1705311;84;21075;-53
2021/03/07 04:11:49;;;;;;;18.00;9.08;;;;;;;-2.12;63.79;100685.33;1705100;84;21043;-53
2021/03/07 04:14:19;;;;;;;15.70;10.23;;;;;;;-2.10;63.81;100675.23;1705289;82;21027;-54
2021/03/07 04:16:49;;;;;;;15.05;9.50;;;;;;;-2.10;63.78;100677.92;1705306;84;22230;-54
2021/03/07 04:19:31;;;;;;;16.30;10.18;;;;;;;-2.09;63.75;100656.72;1705230;83;21074;-52
2021/03/07 04:22:00;;;;;;;16.90;10.45;;;;;;;-2.07;63.70;100653.84;1685375;83;21003;-54
2021/03/07 04:24:28;;;;;;;12.70;10.13;;;;;;;-2.05;63.72;100646.93;1685306;83;20959;-54
2021/03/07 04:26:57;;;;;;;16.95;9.88;;;;;;;-2.04;63.63;100633.77;1713051;83;20962;-54
2021/03/07 04:29:25;;;;;;;17.62;10.00;;;;;;;-2.02;63.62;100637.13;1713111;83;21205;-54
2021/03/07 04:31:53;;;;;;;17.62;10.78;;;;;;;-2.03;63.57;100622.85;1713130;83;22143;-54
2021/03/07 04:34:21;;;;;;;15.32;9.73;;;;;;;-2.03;63.72;100619.30;1713214;83;21002;-54
2021/03/07 04:36:51;;;;;;;14.83;10.18;;;;;;;-2.02;63.61;100627.71;1713002;83;20959;-54
2021/03/07 04:39:19;;;;;;;17.15;9.88;;;;;;;-1.99;63.57;100617.91;1713193;83;21003;-54
2021/03/07 04:41:47;;;;;;;12.65;10.08;;;;;;;-1.97;63.60;100619.41;1712982;83;21360;-54
2021/03/07 04:44:17;;;;;;;17.17;10.23;;;;;;;-1.96;63.49;100604.93;1712278;83;21156;-54
2021/03/07 04:46:44;;;;;;;15.83;10.82;;;;;;;-1.96;63.55;100613.50;1712913;83;21665;-54
2021/03/07 04:49:12;;;;;;;18.20;10.75;;;;;;;-1.94;63.66;100607.44;1712766;83;21069;-54
2021/03/07 04:51:40;;;;;;;18.90;11.68;;;;;;;-1.92;63.63;100608.06;1712812;83;21672;-54
2021/03/07 04:54:09;;;;;;;25.20;11.60;;;;;;;-1.88;63.51;100601.29;1712787;83;21202;-54
2021/03/07 04:56:36;;;;;;;20.00;11.75;;;;;;;-1.87;63.58;100598.94;1712775;83;21062;-53
2021/03/07 04:59:04;;;;;;;19.10;11.20;;;;;;;-1.85;63.56;100583.93;1712850;83;21054;-54
2021/03/07 05:01:32;;;;;;;16.57;11.33;;;;;;;-1.81;63.44;100594.13;1712946;83;21026;-54
2021/03/07 05:04:00;;;;;;;22.07;11.73;;;;;;;-1.80;63.59;100591.77;1713023;83;21027;-54
2021/03/07 05:06:29;;;;;;;25.55;13.28;;;;;;;-1.75;63.62;100587.98;1712943;83;21042;-54
2021/03/07 05:09:01;;;;;;;18.50;12.33;;;;;;;-1.72;63.53;100587.30;1712610;83;21038;-54
2021/03/07 05:11:38;;;;;;;15.70;10.58;;;;;;;-1.70;63.52;100593.32;1711832;83;21070;-54
2021/03/07 05:14:07;;;;;;;22.80;13.53;;;;;;;-1.65;63.43;100597.64;1712083;82;22126;-54
2021/03/07 05:16:40;;;;;;;20.57;12.05;;;;;;;-1.60;63.27;100575.84;1712313;83;21680;-54
2021/03/07 05:19:08;;;;;;;19.40;11.63;;;;;;;-1.58;63.21;100578.35;1712371;83;22497;-53
2021/03/07 05:21:35;;;;;;;19.90;12.50;;;;;;;-1.56;63.15;100574.94;1716160;83;20986;-53
2021/03/07 05:24:05;;;;;;;20.70;12.47;;;;;;;-1.52;62.98;100565.46;1717977;83;21073;-54
2021/03/07 05:26:35;;;;;;;21.25;13.40;;;;;;;-1.50;62.88;100586.81;1718230;83;21074;-53
2021/03/07 05:29:08;;;;;;;28.60;15.53;;;;;;;-1.48;62.86;100572.14;1717951;83;22268;-53
2021/03/07 05:31:39;;;;;;;28.57;15.00;;;;;;;-1.42;62.90;100578.63;1717889;83;21112;-53
2021/03/07 05:34:25;;;;;;;23.05;13.48;;;;;;;-1.37;62.68;100561.88;1717973;83;21041;-53
2021/03/07 05:36:52;;;;;;;18.07;11.93;;;;;;;-1.34;62.54;100565.04;1718116;83;21018;-54
2021/03/07 05:39:23;;;;;;;21.55;13.68;;;;;;;-1.29;62.42;100561.77;1717918;83;21076;-54
2021/03/07 05:41:56;;;;;;;32.73;14.20;;;;;;;-1.25;62.25;100552.27;1718068;83;21053;-54
2021/03/07 05:44:24;;;;;;;23.32;14.30;;;;;;;-1.23;62.22;100551.06;1717733;83;22000;-54
2021/03/07 05:46:51;;;;;;;24.27;15.28;;;;;;;-1.18;62.17;100546.95;1718041;83;21058;-54
2021/03/07 05:49:22;;;;;;;25.20;14.07;;;;;;;-1.12;62.09;100539.44;1717942;83;21037;-54
2021/03/07 05:51:51;;;;;;;20.82;12.93;;;;;;;-1.06;61.90;100548.94;1718154;83;21030;-54
2021/03/07 05:54:27;;;;;;;24.07;15.60;;;;;;;-0.99;61.69;100529.28;1718070;83;21556;-54
2021/03/07 05:56:55;;;;;;;22.52;13.72;;;;;;;-0.96;61.82;100532.41;1718010;83;21442;-54
2021/03/07 05:59:25;;;;;;;18.15;12.65;;;;;;;-0.92;61.64;100524.77;1717768;83;21030;-55
2021/03/07 06:01:52;;;;;;;20.08;12.30;;;;;;;-0.88;61.64;100515.27;1717816;83;21639;-54
2021/03/07 06:04:24;;;;;;;40.48;15.10;;;;;;;-0.84;61.42;100535.42;1718140;83;21030;-54
2021/03/07 06:06:54;;;;;;;20.12;13.25;;;;;;;-0.80;61.45;100521.02;1717913;83;21425;-54
2021/03/07 06:09:27;;;;;;;18.55;13.05;;;;;;;-0.78;61.22;100514.92;1718084;83;21216;-55
2021/03/07 06:12:01;;;;;;;17.10;12.58;;;;;;;-0.76;61.20;100519.10;1717455;83;21034;-55
2021/03/07 06:14:34;;;;;;;39.80;19.80;;;;;;;-0.71;61.06;100508.53;1718010;82;21123;-55
2021/03/07 06:17:12;;;;;;;29.80;17.15;;;;;;;-0.66;61.06;100516.55;1691248;83;21026;-54
2021/03/07 06:19:59;;;;;;;24.43;14.93;;;;;;;-0.61;60.69;100501.45;1718003;83;21014;-54
2021/03/07 06:22:28;;;;;;;21.73;14.43;;;;;;;-0.58;60.53;100505.62;1705345;83;21373;-54
2021/03/07 06:24:57;;;;;;;24.60;14.28;;;;;;;-0.52;60.35;100507.52;1703928;84;21062;-54
2021/03/07 06:27:24;;;;;;;24.05;15.00;;;;;;;-0.48;60.32;100511.48;1704230;84;21201;-55
2021/03/07 06:30:01;;;;;;;34.15;15.45;;;;;;;-0.41;60.27;100504.78;1704508;83;21690;-54
2021/03/07 06:32:42;;;;;;;25.88;15.13;;;;;;;-0.35;60.19;100485.91;1704669;83;21078;-55
2021/03/07 06:35:12;;;;;;;24.98;14.03;;;;;;;-0.29;59.95;100499.65;1704781;84;21195;-54
2021/03/07 06:38:07;;;;;;;23.32;14.60;;;;;;;-0.21;59.77;100507.59;1704432;83;21015;-55
2021/03/07 06:40:45;;;;;;;25.05;14.55;;;;;;;-0.17;59.59;100500.76;1704382;84;21055;-53
2021/03/07 06:43:31;;;;;;;24.70;15.28;;;;;;;-0.13;59.49;100499.30;1704671;84;21007;-53
2021/03/07 06:46:01;;;;;;;25.15;14.70;;;;;;;-0.08;59.35;100464.97;1702481;84;21003;-54
2021/03/07 06:48:35;;;;;;;30.30;19.87;;;;;;;-0.10;59.28;100482.72;1704401;84;21211;-55
2021/03/07 06:51:09;;;;;;;21.33;13.80;;;;;;;-0.08;59.48;100483.34;1704447;84;21089;-53
2021/03/07 06:53:39;;;;;;;32.50;16.35;;;;;;;-0.03;59.38;100514.63;1704544;84;21082;-54
2021/03/07 06:56:07;;;;;;;23.70;15.88;;;;;;;-0.01;59.40;100478.80;1704623;84;21201;-54
2021/03/07 06:58:38;;;;;;;22.75;16.12;;;;;;;0.06;59.32;100482.02;1704604;83;21012;-54
2021/03/07 07:01:22;;;;;;;24.57;15.93;;;;;;;0.10;59.28;100472.48;1704428;84;21624;-54
2021/03/07 07:03:59;;;;;;;29.75;15.88;;;;;;;0.14;59.25;100470.55;1704696;83;21628;-54
2021/03/07 07:06:28;;;;;;;27.67;16.40;;;;;;;0.20;59.19;100491.86;1704409;84;21628;-54
2021/03/07 07:09:04;;;;;;;26.52;16.25;;;;;;;0.20;59.33;100460.80;1704511;84;21624;-55
2021/03/07 07:11:43;;;;;;;;;;;;;;;0.28;59.12;100459.23;1706924;83;21050;-54
2021/03/07 07:14:41;;;;;;;32.15;14.28;;;;;;;0.42;58.98;100439.83;1816507;76;22753;-54
2021/03/07 07:17:19;;;;;;;28.23;16.45;;;;;;;0.45;58.85;100441.30;1783862;80;20946;-54
2021/03/07 07:19:51;;;;;;;31.10;18.17;;;;;;;0.49;58.67;100428.51;1752894;80;21389;-54
2021/03/07 07:22:19;;;;;;;29.67;15.38;;;;;;;0.57;58.63;100428.81;1783389;80;21047;-54
2021/03/07 07:24:58;;;;;;;33.85;16.10;;;;;;;0.69;58.61;100436.63;1783673;80;21095;-54
2021/03/07 07:27:27;;;;;;;23.80;15.93;;;;;;;0.91;58.38;100428.82;1783951;80;21010;-54
2021/03/07 07:29:56;;;;;;;28.00;20.23;;;;;;;1.05;57.65;100431.00;1783756;80;20989;-54
2021/03/07 07:32:44;;;;;;;27.58;16.30;;;;;;;1.09;57.43;100424.13;1783017;80;21362;-53
2021/03/07 07:35:24;;;;;;;34.83;19.23;;;;;;;1.17;57.29;100417.97;1779276;80;27127;-55
2021/03/07 07:37:58;;;;;;;27.82;16.95;;;;;;;1.21;57.28;100415.66;1783806;80;20990;-54
2021/03/07 07:40:40;;;;;;;31.35;17.67;;;;;;;1.30;56.77;100406.28;1783481;79;20974;-54
2021/03/07 07:43:12;;;;;;;32.42;16.87;;;;;;;1.38;56.37;100417.38;1783873;80;21026;-54
2021/03/07 07:45:42;;;;;;;21.60;14.80;;;;;;;1.50;55.96;100419.75;1783742;80;21365;-54
2021/03/07 07:48:43;;;;;;;24.18;15.90;;;;;;;1.52;55.98;100410.05;1783549;80;21057;-54
2021/03/07 07:51:38;;;;;;;30.35;16.52;;;;;;;1.59;56.01;100398.68;1783742;80;21033;-54
2021/03/07 07:54:07;;;;;;;21.25;14.28;;;;;;;1.67;55.70;100394.38;1774377;80;21491;-54
2021/03/07 07:56:44;;;;;;;22.93;14.28;;;;;;;1.78;55.46;100382.55;1783787;80;21030;-54
2021/03/07 07:59:16;;;;;;;23.52;14.38;;;;;;;1.79;54.98;100370.69;1783555;80;21520;-53
2021/03/07 08:01:58;;;;;;;23.25;13.75;;;;;;;1.74;55.03;100375.38;1728878;80;21037;-55
2021/03/07 08:04:39;;;;;;;20.40;12.75;;;;;;;1.68;55.24;100366.23;1783864;80;21608;-54
2021/03/07 08:07:12;;;;;;;23.02;14.18;;;;;;;1.67;55.49;100373.22;1783979;80;21069;-55
2021/03/07 08:09:45;;;;;;;20.65;11.63;;;;;;;1.72;55.36;100369.36;1784247;80;21066;-55
2021/03/07 08:12:47;;;;;;;19.77;12.50;;;;;;;1.70;54.80;100384.97;1784307;79;22302;-60
2021/03/07 08:15:32;;;;;;;24.43;14.75;;;;;;;1.57;55.00;100359.33;1784208;79;22171;-54
2021/03/07 08:18:04;;;;;;;76.02;16.05;;;;;;;1.45;55.38;100356.47;1783932;80;22233;-55
2021/03/07 08:20:45;;;;;;;20.92;13.95;;;;;;;1.40;55.61;100342.73;1783976;80;20954;-55
2021/03/07 08:23:19;;;;;;;34.08;14.30;;;;;;;1.36;55.75;100339.65;1784074;80;21596;-54
2021/03/07 08:25:56;;;;;;;22.45;14.23;;;;;;;1.36;56.01;100336.41;1783596;80;22103;-54
2021/03/07 08:28:33;;;;;;;22.70;13.18;;;;;;;1.38;55.88;100338.36;1783288;79;21033;-54
2021/03/07 08:31:21;;;;;;;19.12;13.93;;;;;;;1.40;56.04;100338.17;1783126;80;21049;-55
2021/03/07 08:33:48;;;;;;;;;;;;;;;1.45;55.93;100348.35;1786082;79;20978;-56
2021/03/07 08:36:21;;;;;;;24.15;14.30;;;;;;;1.47;55.95;100336.77;1783226;80;20202;-54
2021/03/07 08:38:57;;;;;;;20.90;13.13;;;;;;;1.49;55.99;100325.22;1783179;80;22096;-54
2021/03/07 08:41:45;;;;;;;21.00;11.80;;;;;;;1.52;55.90;100327.49;1783060;80;21045;-54
2021/03/07 08:44:14;;;;;;;;;;;;;;;1.60;55.99;100345.35;1786087;80;21025;-54
2021/03/07 08:46:46;;;;;;;21.60;13.05;;;;;;;1.59;55.75;100335.05;1783350;80;20202;-55
2021/03/07 08:49:23;;;;;;;25.35;13.13;;;;;;;1.61;55.62;100339.72;1783496;80;21061;-55
2021/03/07 08:51:58;;;;;;;22.67;14.38;;;;;;;1.64;55.55;100316.27;1783441;80;21365;-55
2021/03/07 08:54:30;;;;;;;16.52;12.18;;;;;;;1.65;55.60;100312.52;1783450;80;21021;-54
2021/03/07 08:57:05;;;;;;;19.00;12.55;;;;;;;1.71;55.68;100310.28;1783166;80;21450;-55
2021/03/07 08:59:35;;;;;;;20.30;12.23;;;;;;;1.81;55.41;100318.47;1783009;80;21073;-55
2021/03/07 09:02:04;;;;;;;19.37;12.73;;;;;;;1.87;55.27;100317.59;1783029;80;21061;-55
2021/03/07 09:04:38;;;;;;;16.65;12.05;;;;;;;1.87;55.18;100316.23;1783124;80;22103;-55
2021/03/07 09:07:05;;;;;;;31.07;14.83;;;;;;;1.87;55.25;100306.25;1782948;80;21029;-55
2021/03/07 09:09:38;;;;;;;21.12;13.93;;;;;;;1.83;55.13;100313.15;1783396;80;21551;-54
2021/03/07 09:12:08;;;;;;;24.25;12.47;;;;;;;1.83;55.34;100308.23;1783021;80;21041;-54
2021/03/07 09:14:40;;;;;;;21.48;13.43;;;;;;;1.84;55.34;100292.30;1796118;79;21008;-54
2021/03/07 09:17:21;;;;;;;20.72;12.70;;;;;;;1.87;55.44;100299.98;1797942;79;22342;-55
2021/03/07 09:19:50;;;;;;;20.97;12.63;;;;;;;1.91;55.42;100297.15;1797581;79;20973;-54
2021/03/07 09:22:27;;;;;;;22.35;12.25;;;;;;;1.94;55.38;100298.05;1797799;79;21126;-53
2021/03/07 09:25:03;;;;;;;16.90;12.98;;;;;;;1.95;55.01;100297.02;1797463;79;21047;-53
2021/03/07 09:27:34;;;;;;;30.77;12.82;;;;;;;1.90;55.25;100283.29;1797738;79;21060;-55
2021/03/07 09:30:15;;;;;;;27.80;13.00;;;;;;;1.88;55.34;100288.11;1797648;79;22341;-54
2021/03/07 09:32:50;;;;;;;26.82;13.53;;;;;;;1.91;55.35;100297.15;1797587;79;21599;-53
2021/03/07 09:35:36;;;;;;;19.25;13.22;;;;;;;1.95;55.22;100281.30;1797844;79;20957;-55
2021/03/07 09:38:11;;;;;;;26.25;13.43;;;;;;;1.96;55.40;100282.94;1797615;79;20990;-55
2021/03/07 09:40:43;;;;;;;20.62;13.25;;;;;;;1.97;55.45;100286.80;1797677;79;21025;-55
2021/03/07 09:43:14;;;;;;;21.07;14.05;;;;;;;1.97;55.46;100284.09;1797925;79;21207;-55
2021/03/07 09:45:50;;;;;;;22.58;13.30;;;;;;;1.97;55.44;100284.09;1772546;79;21044;-54
2021/03/07 09:48:22;;;;;;;24.65;13.13;;;;;;;1.97;55.50;100273.27;1797975;79;21025;-54
2021/03/07 09:50:53;;;;;;;21.35;12.95;;;;;;;2.01;55.59;100277.16;1797436;79;21040;-54
2021/03/07 09:53:27;;;;;;;18.73;12.93;;;;;;;2.05;55.48;100291.93;1797667;79;21110;-54
2021/03/07 09:56:02;;;;;;;18.40;12.13;;;;;;;2.05;55.55;100271.61;1797768;79;21197;-54
2021/03/07 09:58:38;;;;;;;15.35;11.78;;;;;;;2.08;55.50;100268.45;1797672;79;21607;-54
2021/03/07 10:01:07;;;;;;;22.25;11.65;;;;;;;2.11;55.69;100282.62;1797489;79;21032;-53
2021/03/07 10:03:37;;;;;;;21.52;12.63;;;;;;;2.10;55.60;100277.75;1797816;79;21004;-54
2021/03/07 10:06:21;;;;;;;22.30;13.85;;;;;;;2.09;55.69;100277.44;1797818;79;21056;-54
2021/03/07 10:09:06;;;;;;;22.02;12.85;;;;;;;2.04;55.84;100279.96;1797078;79;21399;-54
2021/03/07 10:11:41;;;;;;;17.27;12.10;;;;;;;2.01;55.92;100274.45;1794406;79;21037;-55
2021/03/07 10:14:17;;;;;;;19.75;12.75;;;;;;;2.05;55.94;100262.67;1788930;78;21154;-55
2021/03/07 10:16:51;;;;;;;14.43;11.08;;;;;;;2.06;56.22;100262.98;1753618;80;21041;-55
2021/03/07 10:19:20;;;;;;;21.45;11.73;;;;;;;2.11;55.96;100256.89;1782991;80;21041;-55
2021/03/07 10:21:54;;;;;;;36.35;13.03;;;;;;;2.16;55.94;100263.81;1783019;80;21240;-55
2021/03/07 10:24:19;;;;;;;22.13;12.58;;;;;;;2.20;55.67;100248.27;1782382;79;21041;-54
2021/03/07 10:26:53;;;;;;;17.40;12.47;;;;;;;2.21;55.64;100249.08;1783139;80;21030;-55
2021/03/07 10:29:31;;;;;;;15.88;11.90;;;;;;;2.13;55.80;100246.64;1783092;80;21041;-55
2021/03/07 10:32:18;;;;;;;15.03;11.95;;;;;;;2.05;55.94;100249.94;1783127;80;21238;-55
2021/03/07 10:34:53;;;;;;;13.88;11.78;;;;;;;2.04;56.13;100252.37;1783036;80;22076;-54
2021/03/07 10:37:42;;;;;;;20.62;15.25;;;;;;;2.08;56.07;100229.70;1782879;80;21060;-54
2021/03/07 10:40:12;;;;;;;19.27;13.30;;;;;;;2.07;56.15;100234.30;1783412;80;21006;-56
2021/03/07 10:42:42;;;;;;;22.85;13.43;;;;;;;2.11;56.07;100232.50;1782842;80;21214;-54
2021/03/07 10:45:23;;;;;;;20.20;13.55;;;;;;;2.14;56.15;100230.70;1782947;80;20981;-54
2021/03/07 10:48:05;;;;;;;20.68;14.00;;;;;;;2.20;56.18;100220.31;1781294;80;21494;-54
2021/03/07 10:50:49;;;;;;;29.85;16.40;;;;;;;2.28;55.82;100207.84;1783023;80;20982;-55
2021/03/07 10:53:23;;;;;;;;;;;;;;;2.30;55.83;100194.06;1785843;79;21599;-55
2021/03/07 10:55:56;;;;;;;32.15;17.00;;;;;;;2.33;55.96;100193.10;1782969;80;20186;-55
2021/03/07 10:58:25;;;;;;;23.12;14.75;;;;;;;2.41;55.68;100187.39;1782864;80;21002;-55
2021/03/07 11:00:52;;;;;;;22.17;13.80;;;;;;;2.43;55.75;100196.65;1783040;80;21551;-55
2021/03/07 11:03:29;;;;;;;24.63;14.43;;;;;;;2.47;55.49;100182.92;1783233;80;21057;-55
2021/03/07 11:05:59;;;;;;;22.42;14.28;;;;;;;2.48;55.31;100187.30;1783296;80;21045;-55
2021/03/07 11:08:29;;;;;;;18.32;12.65;;;;;;;2.45;55.46;100178.80;1783182;80;21019;-55
2021/03/07 11:10:57;;;;;;;21.95;12.00;;;;;;;2.49;55.21;100178.11;1783094;80;21647;-54
2021/03/07 11:13:26;;;;;;;19.23;12.82;;;;;;;2.50;55.19;100183.00;1784297;79;20958;-54
2021/03/07 11:15:54;;;;;;;19.65;12.80;;;;;;;2.49;55.23;100178.11;1797728;79;21024;-55
2021/03/07 11:18:25;;;;;;;24.57;12.40;;;;;;;2.51;55.04;100180.59;1797683;79;21491;-55
2021/03/07 11:20:52;;;;;;;19.52;10.90;;;;;;;2.47;54.96;100176.68;1797491;79;21029;-54
2021/03/07 11:23:23;;;;;;;19.23;11.03;;;;;;;2.48;55.22;100175.63;1797549;79;21583;-54
2021/03/07 11:25:58;;;;;;;16.00;9.90;;;;;;;2.50;54.90;100169.44;1797474;79;21203;-54
2021/03/07 11:28:26;;;;;;;13.68;9.78;;;;;;;2.49;54.95;100171.34;1797698;79;21028;-54
2021/03/07 11:30:57;;;;;;;18.50;10.50;;;;;;;2.47;54.92;100165.84;1797451;79;21044;-55
2021/03/07 11:33:26;;;;;;;25.45;12.07;;;;;;;2.46;55.07;100153.33;1797462;79;21073;-54
2021/03/07 11:35:54;;;;;;;20.55;11.83;;;;;;;2.45;55.04;100155.76;1797234;79;21016;-54
2021/03/07 11:38:24;;;;;;;17.42;12.80;;;;;;;2.45;55.21;100138.95;1797685;79;22335;-54
2021/03/07 11:40:52;;;;;;;20.08;11.28;;;;;;;2.49;55.03;100144.23;1797324;79;20997;-54